Time;durP1;ratioP1;P1;durP2;ratioP2;P2;SDS_P1;SDS_P2;PMS_P1;PMS_P2;Temp;Humidity;BMP_temperature;BMP_pressure;BME280_temperature;BME280_humidity;BME280_pressure;Samples;Min_cycle;Max_cycle;Signal;HPM_P1;HPM_P2
2021/06/20 00:00:10;;;;;;;45.83;14.05;;;;;;;18.51;75.01;100470.97;5027721;28;20474;-71
2021/06/20 00:02:37;;;;;;;38.47;14.05;;;;;;;18.49;75.39;100473.69;5029970;28;20060;-70
2021/06/20 00:05:06;;;;;;;42.08;14.73;;;;;;;18.43;75.41;100468.66;5028578;28;20417;-70
2021/06/20 00:07:32;;;;;;;30.60;12.82;;;;;;;18.33;75.35;100456.75;5027629;28;20068;-71
2021/06/20 00:10:00;;;;;;;33.45;14.20;;;;;;;18.31;75.68;100474.50;5027363;28;20057;-72
2021/06/20 00:12:26;;;;;;;33.63;13.88;;;;;;;18.21;75.59;100467.91;5029351;28;20144;-70
2021/06/20 00:14:52;;;;;;;43.67;13.70;;;;;;;18.22;76.30;100472.28;5028530;28;20128;-72
2021/06/20 00:17:18;;;;;;;42.42;13.25;;;;;;;18.19;75.77;100477.69;5027732;28;20041;-71
2021/06/20 00:19:43;;;;;;;35.15;13.55;;;;;;;18.09;76.44;100464.88;5029766;28;20566;-70
2021/06/20 00:22:09;;;;;;;39.55;13.75;;;;;;;18.06;76.32;100458.84;5028692;28;20410;-70
2021/06/20 00:24:35;;;;;;;34.08;13.55;;;;;;;18.02;76.72;100462.56;5033182;28;20052;-70
2021/06/20 00:27:01;;;;;;;44.50;13.73;;;;;;;18.04;77.12;100456.25;5031368;28;20549;-70
2021/06/20 00:29:26;;;;;;;44.53;14.18;;;;;;;17.87;77.14;100442.03;5032044;28;20099;-72
2021/06/20 00:31:54;;;;;;;43.38;15.27;;;;;;;18.02;76.84;100460.75;5032286;28;20600;-70
2021/06/20 00:34:19;;;;;;;36.03;14.45;;;;;;;18.01;76.02;100466.13;5034312;28;20052;-69
2021/06/20 00:36:45;;;;;;;39.15;13.43;;;;;;;18.06;75.59;100475.59;5013823;28;20132;-70
2021/06/20 00:39:11;;;;;;;41.90;13.88;;;;;;;18.04;76.08;100477.44;5032318;28;20037;-70
2021/06/20 00:41:38;;;;;;;37.55;13.35;;;;;;;17.96;76.24;100463.69;5033878;28;20486;-69
2021/06/20 00:44:04;;;;;;;33.90;13.20;;;;;;;17.99;75.93;100473.28;5031300;28;20049;-72
2021/06/20 00:46:30;;;;;;;32.85;13.32;;;;;;;17.87;76.39;100458.78;5033675;28;20041;-70
2021/06/20 00:48:55;;;;;;;36.15;15.07;;;;;;;17.79;76.80;100459.06;5032777;28;20092;-72
2021/06/20 00:51:22;;;;;;;36.05;13.65;;;;;;;17.86;76.58;100466.78;5032350;28;20100;-70
2021/06/20 00:53:48;;;;;;;42.28;14.38;;;;;;;17.81;76.65;100466.09;5031318;28;20033;-73
2021/06/20 00:56:14;;;;;;;40.95;14.65;;;;;;;17.91;76.65;100475.38;5032741;28;20048;-68
2021/06/20 00:58:42;;;;;;;33.88;13.80;;;;;;;17.89;76.54;100480.75;5031942;28;20132;-72
2021/06/20 01:01:08;;;;;;;42.15;13.07;;;;;;;17.88;76.15;100473.72;4983224;28;20043;-69
2021/06/20 01:03:34;;;;;;;45.40;14.20;;;;;;;17.86;76.36;100478.22;5015363;28;20045;-70
2021/06/20 01:06:00;;;;;;;38.30;14.05;;;;;;;17.79;76.59;100467.00;5033053;28;20091;-69
2021/06/20 01:08:27;;;;;;;44.13;14.98;;;;;;;17.85;76.61;100481.81;5031831;28;20049;-70
2021/06/20 01:10:53;;;;;;;32.95;15.55;;;;;;;17.87;76.99;100482.59;5033138;28;20130;-71
2021/06/20 01:13:20;;;;;;;45.88;15.05;;;;;;;17.80;76.78;100467.88;5032851;28;20513;-71
2021/06/20 01:15:49;;;;;;;41.25;14.75;;;;;;;17.90;75.76;100484.25;5031112;28;20037;-69
2021/06/20 01:18:16;;;;;;;56.50;15.68;;;;;;;17.90;75.56;100490.41;5031330;28;20107;-71
2021/06/20 01:20:42;;;;;;;56.42;19.77;;;;;;;17.95;75.10;100493.72;5014256;28;20041;-73
2021/06/20 01:23:09;;;;;;;56.58;20.27;;;;;;;17.96;75.18;100494.56;5031898;28;20562;-69
2021/06/20 01:25:36;;;;;;;53.92;19.10;;;;;;;17.91;74.89;100483.31;5031541;28;20422;-71
2021/06/20 01:28:08;;;;;;;45.25;20.10;;;;;;;17.92;74.43;100477.09;5033041;28;20041;-69
2021/06/20 01:30:36;;;;;;;49.67;19.02;;;;;;;18.06;74.44;100493.25;5016461;28;20045;-70
2021/06/20 01:33:04;;;;;;;39.22;16.13;;;;;;;18.06;74.49;100491.47;5015073;28;20041;-71
2021/06/20 01:35:30;;;;;;;54.10;18.92;;;;;;;18.13;74.37;100492.06;5030743;28;20529;-71
2021/06/20 01:37:56;;;;;;;42.20;17.10;;;;;;;18.04;74.51;100474.78;5032956;28;20045;-70
2021/06/20 01:40:23;;;;;;;49.35;17.65;;;;;;;18.20;74.17;100493.53;5031473;28;20049;-69
2021/06/20 01:42:50;;;;;;;48.17;18.58;;;;;;;18.13;73.64;100483.25;5031883;28;20486;-69
2021/06/20 01:45:17;;;;;;;42.92;19.40;;;;;;;18.23;73.32;100495.19;5015646;28;20045;-70
2021/06/20 01:47:43;;;;;;;37.08;17.40;;;;;;;18.30;74.00;100494.84;5032684;28;20041;-72
2021/06/20 01:50:12;;;;;;;47.92;18.02;;;;;;;18.36;74.06;100499.88;5032107;28;20041;-69
2021/06/20 01:52:38;;;;;;;53.05;18.88;;;;;;;18.36;73.78;100491.91;5031707;28;20045;-70
2021/06/20 01:55:06;;;;;;;55.92;18.30;;;;;;;18.37;74.13;100484.84;5033261;28;20047;-68
2021/06/20 01:57:34;;;;;;;44.92;18.40;;;;;;;18.51;74.04;100500.09;5031624;28;20049;-70
2021/06/20 02:00:01;;;;;;;46.10;18.73;;;;;;;18.56;73.68;100504.28;5042715;28;20072;-71
2021/06/20 02:02:28;;;;;;;43.58;17.67;;;;;;;18.62;73.83;100500.56;5051850;28;20052;-69
2021/06/20 02:04:55;;;;;;;54.65;19.50;;;;;;;18.57;73.82;100482.16;5067575;28;20098;-69
2021/06/20 02:07:25;;;;;;;55.85;18.75;;;;;;;18.70;73.58;100511.66;5033981;28;20501;-69
2021/06/20 02:09:51;;;;;;;62.08;20.95;;;;;;;18.61;73.21;100489.09;5051944;28;20055;-69
2021/06/20 02:12:24;;;;;;;41.20;18.20;;;;;;;18.75;73.21;100501.72;5052095;28;20074;-70
2021/06/20 02:14:51;;;;;;;50.78;19.35;;;;;;;18.91;73.10;100518.63;5051938;28;20441;-69
2021/06/20 02:17:27;;;;;;;62.00;18.60;;;;;;;18.94;71.92;100513.19;5050469;28;20040;-69
2021/06/20 02:20:12;;;;;;;46.92;18.30;;;;;;;18.96;71.34;100499.84;5051823;28;20057;-69
2021/06/20 02:22:40;;;;;;;47.15;17.95;;;;;;;19.42;69.70;100519.78;5050371;28;20498;-70
2021/06/20 02:25:07;;;;;;;51.75;17.77;;;;;;;20.49;67.32;100502.03;5051818;28;20094;-70
2021/06/20 02:27:33;;;;;;;44.60;17.55;;;;;;;21.63;63.71;100520.66;5050394;28;20049;-68
2021/06/20 02:29:58;;;;;;;44.28;16.60;;;;;;;22.54;60.63;100519.72;5051928;28;20056;-69
2021/06/20 02:32:25;;;;;;;50.20;17.38;;;;;;;23.22;58.04;100507.41;5051526;28;20045;-70
2021/06/20 02:34:51;;;;;;;52.53;16.45;;;;;;;23.93;56.14;100503.69;5050401;28;20041;-70
2021/06/20 02:37:18;;;;;;;49.55;16.13;;;;;;;24.47;51.67;100511.59;5051480;28;20106;-70
2021/06/20 02:39:44;;;;;;;41.88;16.23;;;;;;;24.98;49.95;100516.00;5050189;28;20047;-69
2021/06/20 02:42:11;;;;;;;35.05;16.58;;;;;;;25.57;47.81;100521.50;5049906;28;20551;-68
2021/06/20 02:44:38;;;;;;;30.90;15.90;;;;;;;26.18;46.37;100535.72;5049905;28;20051;-67
2021/06/20 02:47:05;;;;;;;38.97;15.45;;;;;;;26.63;45.43;100514.38;5050661;28;20113;-67
2021/06/20 02:49:32;;;;;;;32.38;16.35;;;;;;;26.72;44.52;100521.69;5051459;28;20045;-68
2021/06/20 02:51:59;;;;;;;43.03;15.73;;;;;;;26.96;44.09;100504.63;5051439;28;20128;-69
2021/06/20 02:54:24;;;;;;;28.90;14.75;;;;;;;27.28;43.34;100516.34;5033722;28;20529;-67
2021/06/20 02:56:50;;;;;;;38.20;15.40;;;;;;;27.32;43.10;100512.41;5050992;28;20131;-68
2021/06/20 02:59:16;;;;;;;29.20;15.60;;;;;;;27.89;42.15;100508.63;5051222;28;20061;-70
2021/06/20 03:01:42;;;;;;;42.35;15.55;;;;;;;28.38;40.92;100515.25;5049933;28;20133;-71
2021/06/20 03:04:08;;;;;;;31.55;15.75;;;;;;;28.82;39.98;100518.59;5049924;28;20402;-69
2021/06/20 03:06:34;;;;;;;35.65;15.52;;;;;;;29.23;38.90;100515.81;5051354;28;20049;-70
2021/06/20 03:09:00;;;;;;;37.47;15.88;;;;;;;29.40;38.86;100507.06;5049846;28;20421;-69
2021/06/20 03:11:25;;;;;;;28.80;15.48;;;;;;;29.79;37.97;100517.94;5051549;28;20082;-69
2021/06/20 03:13:52;;;;;;;37.55;15.55;;;;;;;30.06;37.33;100521.81;5049833;28;20498;-70
2021/06/20 03:16:20;;;;;;;30.38;15.13;;;;;;;30.11;36.92;100519.53;5049584;28;20045;-69
2021/06/20 03:18:46;;;;;;;30.98;14.80;;;;;;;30.31;36.55;100515.81;5049989;28;20076;-68
2021/06/20 03:21:13;;;;;;;23.75;14.30;;;;;;;30.65;35.58;100510.78;5051123;28;20510;-70
2021/06/20 03:23:38;;;;;;;30.27;14.27;;;;;;;30.71;35.36;100506.66;5051032;28;20482;-69
2021/06/20 03:26:04;;;;;;;31.85;14.68;;;;;;;31.13;34.63;100498.91;5050938;28;20045;-70
2021/06/20 03:28:30;;;;;;;32.13;14.15;;;;;;;31.51;34.23;100514.94;5050858;28;20406;-72
2021/06/20 03:30:56;;;;;;;24.10;13.90;;;;;;;31.98;32.89;100522.06;5032976;28;20094;-70
2021/06/20 03:33:22;;;;;;;39.03;13.20;;;;;;;32.25;32.11;100508.41;5051081;28;20045;-71
2021/06/20 03:35:47;;;;;;;29.10;13.15;;;;;;;32.79;31.44;100511.88;5049566;28;20447;-69
2021/06/20 03:38:13;;;;;;;24.05;12.80;;;;;;;33.12;30.48;100502.84;5050904;28;20409;-69
2021/06/20 03:40:39;;;;;;;27.33;12.63;;;;;;;33.20;30.41;100506.59;5049245;28;20048;-69
2021/06/20 03:43:05;;;;;;;31.48;13.85;;;;;;;33.14;30.60;100508.97;5050726;28;20040;-69
2021/06/20 03:45:30;;;;;;;32.50;13.68;;;;;;;32.71;31.63;100509.09;5050762;28;20071;-69
2021/06/20 03:47:56;;;;;;;32.88;14.00;;;;;;;33.30;30.85;100504.63;5066172;28;20505;-69
2021/06/20 03:50:23;;;;;;;28.63;13.15;;;;;;;33.59;30.14;100515.91;5050639;28;20053;-69
2021/06/20 03:52:49;;;;;;;26.30;13.20;;;;;;;33.91;29.60;100500.72;5049340;28;20053;-69
2021/06/20 03:55:15;;;;;;;26.25;12.30;;;;;;;33.90;29.30;100504.44;5050404;28;20052;-71
2021/06/20 03:57:41;;;;;;;33.47;12.18;;;;;;;33.71;29.54;100506.44;5050536;28;20053;-67
2021/06/20 04:00:09;;;;;;;28.80;12.18;;;;;;;33.97;29.59;100505.47;5054291;28;20089;-69
2021/06/20 04:02:35;;;;;;;22.65;12.15;;;;;;;34.42;28.83;100505.81;5053561;28;20049;-70
2021/06/20 04:05:01;;;;;;;29.05;11.93;;;;;;;34.34;28.94;100514.00;5054588;28;20048;-69
2021/06/20 04:07:26;;;;;;;28.52;12.13;;;;;;;34.66;28.46;100504.91;5054364;28;20387;-69
2021/06/20 04:09:52;;;;;;;29.60;12.45;;;;;;;35.24;27.52;100513.75;5054730;28;20052;-68
2021/06/20 04:12:18;;;;;;;29.10;11.40;;;;;;;35.55;27.34;100501.00;5054284;28;20068;-70
2021/06/20 04:14:44;;;;;;;22.85;10.77;;;;;;;35.98;26.53;100501.41;5054390;28;20504;-69
2021/06/20 04:17:10;;;;;;;26.05;10.25;;;;;;;35.33;27.42;100499.94;5054385;28;20137;-70
2021/06/20 04:19:36;;;;;;;15.65;10.07;;;;;;;35.14;28.00;100503.09;5053145;28;20041;-69
2021/06/20 04:22:03;;;;;;;23.67;10.90;;;;;;;34.89;28.55;100491.44;5054580;28;20048;-71
2021/06/20 04:24:29;;;;;;;28.00;10.73;;;;;;;35.38;28.20;100499.41;5053212;28;20040;-69
2021/06/20 04:26:54;;;;;;;33.00;10.60;;;;;;;35.40;28.11;100505.50;5054163;28;20152;-70
2021/06/20 04:29:20;;;;;;;25.63;10.55;;;;;;;35.48;27.77;100505.47;5053992;28;20057;-69
2021/06/20 04:31:46;;;;;;;25.52;10.50;;;;;;;35.83;27.29;100503.25;5054246;28;20041;-70
2021/06/20 04:34:12;;;;;;;23.92;11.10;;;;;;;35.45;28.14;100496.81;5054145;28;20521;-69
2021/06/20 04:36:38;;;;;;;30.25;10.93;;;;;;;35.57;28.05;100500.81;5053835;28;20041;-70
2021/06/20 04:39:07;;;;;;;23.25;11.27;;;;;;;35.40;28.45;100488.34;5053112;28;20402;-68
2021/06/20 04:41:37;;;;;;;32.97;10.10;;;;;;;35.00;29.42;100490.22;5052954;28;20055;-69
2021/06/20 04:44:04;;;;;;;23.15;9.30;;;;;;;35.71;28.15;100485.59;5054132;28;20128;-71
2021/06/20 04:46:36;;;;;;;24.20;9.50;;;;;;;35.59;28.40;100491.44;5054233;28;20060;-72
2021/06/20 04:49:06;;;;;;;17.75;8.45;;;;;;;36.02;27.46;100480.09;5051708;28;20502;-70
2021/06/20 04:51:34;;;;;;;17.05;8.10;;;;;;;36.49;26.73;100479.84;5052813;28;20045;-71
2021/06/20 04:54:00;;;;;;;15.80;8.15;;;;;;;36.29;27.59;100488.53;5069126;28;20471;-70
2021/06/20 04:56:26;;;;;;;19.98;8.35;;;;;;;36.59;27.03;100491.31;5053501;28;20385;-72
2021/06/20 04:58:54;;;;;;;18.52;7.78;;;;;;;37.06;26.43;100490.09;5053615;28;20047;-70
2021/06/20 05:01:19;;;;;;;14.68;7.63;;;;;;;37.50;25.06;100488.13;5052372;28;20045;-70
2021/06/20 05:03:45;;;;;;;19.73;7.68;;;;;;;36.92;26.19;100495.38;5053760;28;20395;-70
2021/06/20 05:06:11;;;;;;;19.25;8.30;;;;;;;37.20;25.85;100489.25;5052114;28;20048;-70
2021/06/20 05:08:37;;;;;;;22.15;7.63;;;;;;;37.72;25.13;100499.09;5052960;28;20187;-70
2021/06/20 05:11:02;;;;;;;19.45;7.32;;;;;;;37.99;25.33;100495.59;5052080;28;20484;-70
2021/06/20 05:13:28;;;;;;;20.63;7.45;;;;;;;37.90;25.17;100496.75;5053711;28;20036;-70
2021/06/20 05:15:54;;;;;;;19.40;7.53;;;;;;;37.46;25.64;100489.56;5053236;28;20049;-69
2021/06/20 05:18:20;;;;;;;20.15;7.57;;;;;;;36.52;27.23;100476.75;5053123;28;20081;-69
2021/06/20 05:20:46;;;;;;;16.00;6.85;;;;;;;36.13;27.83;100491.41;5052215;28;20125;-71
2021/06/20 05:23:11;;;;;;;22.50;7.10;;;;;;;36.02;27.76;100485.53;5051781;28;20087;-71
2021/06/20 05:25:37;;;;;;;12.60;7.10;;;;;;;36.16;27.62;100491.03;5052920;28;20059;-72
2021/06/20 05:28:03;;;;;;;19.95;7.28;;;;;;;36.36;27.98;100488.63;5052877;28;20120;-70
2021/06/20 05:30:29;;;;;;;19.50;6.90;;;;;;;36.07;27.53;100486.69;5067853;28;20486;-69
2021/06/20 05:32:55;;;;;;;11.95;5.93;;;;;;;35.83;27.98;100482.31;5053261;28;20132;-71
2021/06/20 05:35:21;;;;;;;17.15;6.13;;;;;;;36.33;27.38;100496.34;5051442;28;20134;-72
2021/06/20 05:37:47;;;;;;;16.60;5.88;;;;;;;36.75;26.40;100488.41;5051073;28;20045;-71
2021/06/20 05:40:14;;;;;;;13.40;5.60;;;;;;;36.35;26.87;100491.56;5050495;28;20048;-72
2021/06/20 05:42:40;;;;;;;11.55;6.22;;;;;;;36.90;26.52;100486.53;5067338;28;20045;-69
2021/06/20 05:45:06;;;;;;;9.70;5.72;;;;;;;36.38;26.60;100491.19;5052623;28;20056;-70
2021/06/20 05:47:32;;;;;;;19.05;5.93;;;;;;;36.31;26.97;100461.09;5051943;28;20056;-74
2021/06/20 05:49:57;;;;;;;11.90;5.40;;;;;;;36.22;27.00;100482.09;5052024;28;20085;-70
2021/06/20 05:52:23;;;;;;;12.50;5.22;;;;;;;36.68;25.98;100483.88;5051809;28;20073;-69
2021/06/20 05:54:52;;;;;;;11.77;5.15;;;;;;;36.34;26.43;100474.34;5051867;28;20143;-71
2021/06/20 05:57:21;;;;;;;12.20;5.18;;;;;;;36.18;26.27;100475.34;5050929;28;20061;-69
2021/06/20 05:59:48;;;;;;;10.30;4.28;;;;;;;35.80;26.29;100468.16;5034391;28;20044;-71
2021/06/20 06:02:14;;;;;;;12.07;4.20;;;;;;;36.46;25.88;100461.13;5051000;28;20072;-69
2021/06/20 06:04:42;;;;;;;13.57;5.15;;;;;;;36.46;26.01;100472.88;5052315;28;20090;-69
2021/06/20 06:07:08;;;;;;;11.63;4.82;;;;;;;36.69;26.38;100471.94;5017722;28;20127;-70
2021/06/20 06:09:38;;;;;;;9.85;4.50;;;;;;;36.28;26.49;100473.22;5050576;28;20057;-70
2021/06/20 06:12:04;;;;;;;10.45;4.20;;;;;;;36.55;26.44;100474.50;5051255;28;20037;-73
2021/06/20 06:14:30;;;;;;;7.22;3.92;;;;;;;36.71;25.73;100476.19;5050894;28;20138;-69
2021/06/20 06:16:57;;;;;;;10.77;4.45;;;;;;;36.26;26.24;100467.09;5050748;28;20104;-68
2021/06/20 06:19:23;;;;;;;13.18;4.13;;;;;;;36.80;24.87;100472.34;5052420;28;20126;-71
2021/06/20 06:21:49;;;;;;;11.25;3.92;;;;;;;37.24;25.00;100482.38;5049840;28;20092;-69
2021/06/20 06:24:15;;;;;;;10.77;3.92;;;;;;;36.70;25.31;100474.50;5067617;28;20502;-71
2021/06/20 06:26:41;;;;;;;7.70;4.20;;;;;;;36.48;25.81;100468.09;5050374;28;20052;-70
2021/06/20 06:29:07;;;;;;;7.57;3.28;;;;;;;37.69;23.40;100485.81;5051486;28;20363;-69
2021/06/20 06:31:35;;;;;;;17.20;3.30;;;;;;;37.22;24.32;100478.97;5067369;28;20041;-70
2021/06/20 06:34:01;;;;;;;8.85;2.67;;;;;;;37.02;24.30;100477.88;5051435;28;20040;-69
2021/06/20 06:36:27;;;;;;;3.67;2.15;;;;;;;37.24;23.67;100476.09;5051591;28;20045;-70
2021/06/20 06:38:53;;;;;;;3.03;1.60;;;;;;;35.96;24.87;100460.72;5067287;28;20568;-70
2021/06/20 06:41:19;;;;;;;3.40;1.90;;;;;;;36.80;23.83;100466.88;5051756;28;20041;-70
2021/06/20 06:43:45;;;;;;;3.90;2.30;;;;;;;36.61;24.26;100475.63;5050122;28;20056;-70
2021/06/20 06:46:11;;;;;;;5.60;2.45;;;;;;;36.09;24.56;100481.06;5051581;28;20049;-68
2021/06/20 06:48:37;;;;;;;5.88;1.98;;;;;;;36.42;23.56;100476.19;5051279;28;20128;-69
2021/06/20 06:51:03;;;;;;;4.00;1.70;;;;;;;36.18;24.23;100464.44;5051445;28;20048;-68
2021/06/20 06:53:28;;;;;;;3.53;1.90;;;;;;;37.06;24.23;100463.66;5050928;28;20150;-70
2021/06/20 06:55:54;;;;;;;6.88;1.70;;;;;;;37.53;22.78;100468.63;5051197;28;20435;-69
2021/06/20 06:58:20;;;;;;;4.00;2.53;;;;;;;37.65;23.54;100468.13;5066506;28;20076;-69
2021/06/20 07:00:47;;;;;;;9.15;2.55;;;;;;;35.96;24.89;100462.63;5050797;28;20051;-70
2021/06/20 07:03:13;;;;;;;6.82;2.45;;;;;;;36.38;24.90;100464.78;5066178;28;20044;-67
2021/06/20 07:05:38;;;;;;;7.55;2.78;;;;;;;36.72;24.64;100456.06;5051002;28;20048;-71
2021/06/20 07:08:05;;;;;;;7.68;2.92;;;;;;;37.63;24.35;100472.94;5050913;28;20505;-70
2021/06/20 07:10:31;;;;;;;7.75;2.60;;;;;;;37.59;24.23;100464.28;5065856;28;20061;-70
2021/06/20 07:12:57;;;;;;;3.67;2.15;;;;;;;35.86;24.96;100460.16;5049322;28;20136;-70
2021/06/20 07:15:23;;;;;;;4.40;2.00;;;;;;;36.83;23.85;100468.41;5049225;28;20128;-69
2021/06/20 07:17:48;;;;;;;10.30;2.22;;;;;;;38.20;22.26;100461.09;5050137;28;20135;-71
2021/06/20 07:20:15;;;;;;;3.15;2.33;;;;;;;39.16;21.95;100462.09;5051087;28;20350;-71
2021/06/20 07:22:41;;;;;;;2.58;1.90;;;;;;;38.08;22.29;100458.03;5050901;28;20041;-68
2021/06/20 07:25:07;;;;;;;8.45;2.53;;;;;;;37.12;23.77;100453.84;5049005;28;20047;-68
2021/06/20 07:27:35;;;;;;;11.88;2.40;;;;;;;37.85;23.06;100460.97;5032554;28;20049;-68
2021/06/20 07:30:07;;;;;;;9.80;2.22;;;;;;;38.53;22.10;100453.97;5049193;28;20467;-68
2021/06/20 07:32:33;;;;;;;4.88;2.25;;;;;;;37.52;23.18;100464.22;5049981;28;20041;-71
2021/06/20 07:34:59;;;;;;;8.15;2.15;;;;;;;37.81;22.92;100462.41;5048506;28;20051;-70
2021/06/20 07:37:25;;;;;;;5.35;2.10;;;;;;;37.06;24.06;100451.88;5049676;28;20047;-68
2021/06/20 07:39:51;;;;;;;13.65;2.10;;;;;;;36.39;24.58;100455.56;5050855;28;20098;-69
2021/06/20 07:42:16;;;;;;;3.97;1.83;;;;;;;36.95;23.42;100444.19;5065901;28;20139;-72
2021/06/20 07:44:42;;;;;;;10.93;2.22;;;;;;;37.35;23.32;100451.03;5050413;28;20041;-70
2021/06/20 07:47:08;;;;;;;5.88;1.88;;;;;;;37.50;23.19;100447.19;5065229;28;20358;-69
2021/06/20 07:49:34;;;;;;;3.97;1.77;;;;;;;37.59;23.02;100456.09;5050177;28;20041;-70
2021/06/20 07:51:59;;;;;;;10.85;2.53;;;;;;;38.29;22.64;100454.44;5032627;28;20124;-69
2021/06/20 07:54:25;;;;;;;11.13;2.70;;;;;;;37.22;23.52;100452.53;5049958;28;20437;-70
2021/06/20 07:56:51;;;;;;;20.10;3.20;;;;;;;37.04;24.35;100449.34;5049973;28;20418;-70
2021/06/20 07:59:17;;;;;;;9.48;2.30;;;;;;;36.51;24.16;100450.53;5066379;28;20134;-69
2021/06/20 08:01:42;;;;;;;18.70;2.80;;;;;;;37.18;23.86;100444.94;5050036;28;20485;-70
2021/06/20 08:04:08;;;;;;;8.48;2.17;;;;;;;37.72;22.85;100439.84;5050355;28;20405;-68
2021/06/20 08:06:34;;;;;;;6.32;2.05;;;;;;;38.57;22.66;100418.84;5065771;28;20482;-68
2021/06/20 08:09:00;;;;;;;16.30;2.40;;;;;;;38.92;22.36;100433.38;5050006;28;20052;-69
2021/06/20 08:11:26;;;;;;;3.78;1.80;;;;;;;38.00;22.52;100437.19;5050369;28;20041;-70
2021/06/20 08:13:53;;;;;;;8.32;2.10;;;;;;;38.35;22.16;100443.53;5049014;28;20045;-68
2021/06/20 08:16:20;;;;;;;7.20;2.35;;;;;;;38.25;22.47;100451.25;5049841;28;20068;-71
2021/06/20 08:18:46;;;;;;;6.50;2.22;;;;;;;37.47;23.36;100439.38;5050629;28;20040;-69
2021/06/20 08:21:12;;;;;;;11.85;2.40;;;;;;;37.40;23.83;100441.22;5050605;28;20091;-69
2021/06/20 08:23:38;;;;;;;6.93;2.55;;;;;;;36.52;25.02;100439.44;5050072;28;20045;-70
2021/06/20 08:26:03;;;;;;;7.82;2.00;;;;;;;36.76;24.31;100440.16;5049805;28;20118;-68
2021/06/20 08:28:29;;;;;;;11.88;3.03;;;;;;;36.53;25.13;100432.94;5048503;28;20083;-67
2021/06/20 08:30:55;;;;;;;8.65;2.33;;;;;;;36.49;24.72;100422.59;5050011;28;20053;-70
2021/06/20 08:33:21;;;;;;;4.88;2.40;;;;;;;36.22;25.45;100430.34;5050084;28;20057;-69
2021/06/20 08:35:46;;;;;;;7.60;2.28;;;;;;;36.64;24.56;100442.53;5049872;28;20059;-69
2021/06/20 08:38:12;;;;;;;15.05;2.25;;;;;;;36.90;24.11;100429.25;5048385;28;20135;-70
2021/06/20 08:40:39;;;;;;;3.45;2.22;;;;;;;36.16;25.58;100439.25;5049515;28;20394;-70
2021/06/20 08:43:04;;;;;;;6.10;2.10;;;;;;;36.02;25.88;100436.50;5064586;28;20045;-69
2021/06/20 08:45:30;;;;;;;7.75;2.10;;;;;;;34.94;27.01;100431.13;5052361;28;20579;-68
2021/06/20 08:47:56;;;;;;;6.03;2.13;;;;;;;34.99;26.85;100437.72;5053532;28;20040;-69
2021/06/20 08:50:22;;;;;;;11.30;5.43;;;;;;;35.72;25.80;100435.56;5052253;28;20049;-68
2021/06/20 08:52:52;;;;;;;6.90;2.50;;;;;;;35.85;25.68;100431.22;5035146;28;20044;-69
2021/06/20 08:55:18;;;;;;;12.60;2.20;;;;;;;35.11;26.92;100429.16;5068790;28;20036;-67
2021/06/20 08:57:47;;;;;;;8.32;2.40;;;;;;;34.74;27.72;100415.16;5052935;28;20048;-69
2021/06/20 09:00:16;;;;;;;9.63;2.50;;;;;;;33.92;28.31;100413.66;5051944;28;20099;-69
2021/06/20 09:02:42;;;;;;;5.63;2.00;;;;;;;34.22;28.19;100413.97;5052776;28;20080;-69
2021/06/20 09:05:10;;;;;;;4.53;2.00;;;;;;;33.37;29.13;100402.59;5051582;28;20131;-68
2021/06/20 09:07:41;;;;;;;6.03;2.15;;;;;;;33.22;29.44;100388.81;5052986;28;20406;-68
2021/06/20 09:10:15;;;;;;;7.27;2.10;;;;;;;32.68;30.95;100401.81;5051334;28;20190;-69
2021/06/20 09:12:52;;;;;;;5.50;1.73;;;;;;;32.28;31.38;100397.06;5053019;28;20366;-68
2021/06/20 09:15:29;;;;;;;2.28;1.90;;;;;;;31.65;32.54;100386.41;5048482;28;20178;-68
2021/06/20 09:18:08;;;;;;;4.00;2.10;;;;;;;31.30;33.13;100387.31;5045689;28;20037;-68
2021/06/20 09:20:39;;;;;;;3.10;2.13;;;;;;;30.95;33.49;100393.47;5050196;28;20041;-67
2021/06/20 09:23:10;;;;;;;6.13;2.30;;;;;;;30.81;33.86;100394.84;5053244;28;20062;-68
2021/06/20 09:25:38;;;;;;;7.10;2.40;;;;;;;30.73;34.30;100386.66;5052402;28;20052;-68
2021/06/20 09:28:04;;;;;;;4.68;1.95;;;;;;;30.39;34.46;100377.38;5050548;28;20402;-68
2021/06/20 09:30:32;;;;;;;8.73;1.92;;;;;;;30.02;35.36;100379.06;5048413;28;20052;-70
2021/06/20 09:32:59;;;;;;;9.55;2.08;;;;;;;29.70;35.98;100383.91;5047059;28;20490;-69
2021/06/20 09:35:29;;;;;;;4.43;2.25;;;;;;;29.60;36.29;100377.69;5047620;28;20636;-68
2021/06/20 09:37:56;;;;;;;6.78;2.20;;;;;;;29.44;36.33;100375.56;5044982;28;20048;-70
2021/06/20 09:40:26;;;;;;;8.15;2.30;;;;;;;29.32;36.50;100380.22;5062331;28;20142;-69
2021/06/20 09:42:52;;;;;;;7.85;2.85;;;;;;;29.51;36.78;100370.47;5044318;28;20052;-70
2021/06/20 09:45:29;;;;;;;3.58;2.10;;;;;;;29.40;36.44;100372.28;5044398;28;20048;-71
2021/06/20 09:47:55;;;;;;;4.28;2.20;;;;;;;29.34;36.80;100383.63;5061595;28;20045;-70
2021/06/20 09:50:33;;;;;;;7.60;2.65;;;;;;;29.25;36.74;100368.31;5046999;28;20052;-69
2021/06/20 09:53:00;;;;;;;6.13;2.40;;;;;;;29.34;36.65;100367.47;5046301;28;20056;-69
2021/06/20 09:55:25;;;;;;;10.52;2.95;;;;;;;29.25;36.29;100354.84;5060041;28;20446;-70
2021/06/20 09:57:51;;;;;;;7.50;2.20;;;;;;;29.38;37.55;100363.47;5061892;28;20089;-72
2021/06/20 10:00:17;;;;;;;11.65;2.50;;;;;;;29.52;37.15;100359.53;5044927;28;20101;-74
2021/06/20 10:02:43;;;;;;;6.75;2.70;;;;;;;29.45;36.73;100357.56;5043071;28;20047;-72
2021/06/20 10:05:12;;;;;;;11.45;4.15;;;;;;;29.45;36.47;100338.69;5044666;28;20036;-69
2021/06/20 10:07:38;;;;;;;8.98;5.30;;;;;;;29.12;36.87;100345.34;5061689;28;20045;-71
2021/06/20 10:10:07;;;;;;;6.07;2.70;;;;;;;29.13;37.12;100336.25;5046214;28;20544;-71
2021/06/20 10:12:33;;;;;;;3.80;1.92;;;;;;;29.25;36.74;100338.66;5041467;28;20037;-70
2021/06/20 10:15:00;;;;;;;12.02;2.50;;;;;;;29.38;36.17;100352.69;5033741;28;20434;-70
2021/06/20 10:17:33;;;;;;;4.05;2.42;;;;;;;29.38;36.20;100339.22;5043026;28;20052;-71
2021/06/20 10:20:13;;;;;;;3.50;2.80;;;;;;;29.34;36.40;100353.13;5043377;28;20140;-71
2021/06/20 10:22:44;;;;;;;3.95;2.25;;;;;;;29.34;36.61;100343.19;5046220;28;20033;-70
2021/06/20 10:25:29;;;;;;;5.03;2.28;;;;;;;29.41;36.52;100325.47;5048874;28;21078;-70
2021/06/20 10:28:04;;;;;;;4.43;2.53;;;;;;;29.51;36.02;100347.03;5033536;28;20037;-72
2021/06/20 10:30:34;;;;;;;5.47;2.10;;;;;;;29.49;35.84;100334.69;5036605;28;20091;-70
2021/06/20 10:33:06;;;;;;;7.95;2.45;;;;;;;29.44;35.72;100340.53;5044221;28;20069;-79
2021/06/20 10:35:33;;;;;;;3.25;2.00;;;;;;;29.53;36.04;100328.88;5042771;28;20116;-74
2021/06/20 10:37:59;;;;;;;10.43;3.78;;;;;;;29.57;35.96;100321.34;5045646;28;20139;-74
2021/06/20 10:40:29;;;;;;;7.43;2.58;;;;;;;29.67;35.97;100311.38;5064832;28;20037;-75
2021/06/20 10:42:58;;;;;;;4.75;2.08;;;;;;;29.81;36.09;100327.13;5047856;28;20044;-72
2021/06/20 10:45:36;;;;;;;6.07;2.60;;;;;;;29.72;35.44;100331.53;5048779;28;20037;-71
2021/06/20 10:48:21;;;;;;;6.05;2.30;;;;;;;29.57;35.74;100329.44;5047153;28;20072;-72
2021/06/20 10:50:54;;;;;;;11.15;2.33;;;;;;;29.51;35.91;100297.66;5047622;28;20056;-70
2021/06/20 10:53:21;;;;;;;5.78;2.20;;;;;;;29.66;35.45;100317.78;5045942;28;20041;-71
2021/06/20 10:55:50;;;;;;;6.45;2.30;;;;;;;29.62;35.98;100297.50;5046892;28;20494;-68
2021/06/20 10:58:23;;;;;;;4.57;2.00;;;;;;;29.59;36.39;100305.88;5064794;28;20575;-68
2021/06/20 11:00:51;;;;;;;9.27;2.63;;;;;;;29.58;35.04;100293.38;5049999;28;20079;-71
2021/06/20 11:03:28;;;;;;;12.25;2.50;;;;;;;29.61;35.50;100304.72;5049418;28;20044;-72
2021/06/20 11:06:06;;;;;;;5.80;2.28;;;;;;;29.66;35.07;100307.00;5064925;28;20302;-72
2021/06/20 11:08:43;;;;;;;2.67;2.15;;;;;;;29.57;34.62;100307.88;5048726;28;20091;-73
2021/06/20 11:11:17;;;;;;;5.47;1.90;;;;;;;29.61;34.68;100290.41;5048238;28;20080;-74
2021/06/20 11:13:48;;;;;;;8.02;5.45;;;;;;;29.74;34.04;100301.75;5064067;28;20053;-72
2021/06/20 11:16:23;;;;;;;6.68;2.30;;;;;;;29.56;35.38;100287.28;5047426;28;20080;-72